Weather at Bodine Airport

Public forecast

Using degrees Fahrenheit for public forecast. Weather courtesy of forecast.io.

Closest aviation weather report (METAR) to Bodine Airport

Closest report is San Angelo Regional Mathis Field, 38.0 nm (70.3 km) SSE. Retrieved 2021/07/27 23:51 UTC (30 minutes ago):

KSJT 272351Z 13014G21KT 10SM CLR 35/17 A2997 RMK AO2 LTG DSNT SW SLP121 T03500167 10383 20350 56015

Closest aviation forecast (TAF) to Bodine Airport

Closest forecast is San Angelo Regional Mathis Field, 38.0 nm (70.3 km) SSE. Retrieved 2021-07-28 00:22 UTC (0 seconds ago):

TAF KSJT 272320Z 2800/2824 09011KT P6SM VCSH SCT250 FM280300 12009KT P6SM BKN250